Terminal Aerodrome Forecast
Issued by NWS St Louis, MO

Home | Current Version | Previous Version | Text Only | Print | Product List | Glossary On
Versions: 1 2 3 4 5 6 7 8 9 10 11 12 13 14 15 16 17 18 19
037
FTUS43 KLSX 060538
TAFCOU
TAF
KCOU 060538Z 0606/0706 11005KT P6SM BKN150
     FM060900 VRB03KT 4SM BR BKN015
     FM061300 31008KT P6SM BKN015
     FM061400 31010KT P6SM BKN020
     FM061600 31012G19KT P6SM SCT035
     FM062300 29008KT P6SM SCT250=

USA.gov is the U.S. government's official web portal to all federal, state and local government web resources and services.